createdAt,value
2022-07-25T00:00:26.719Z,24.20
2022-07-25T00:02:54.011Z,24.20
2022-07-25T00:05:21.194Z,24.10
2022-07-25T00:07:48.358Z,24.10
2022-07-25T00:10:15.208Z,24.10
2022-07-25T00:12:42.390Z,24.10
2022-07-25T00:15:10.009Z,24.10
2022-07-25T00:17:37.112Z,24.10
2022-07-25T00:20:05.567Z,24.10
2022-07-25T00:22:32.369Z,24.10
2022-07-25T00:24:59.127Z,24.10
2022-07-25T00:27:26.070Z,24.00
2022-07-25T00:29:53.143Z,24.00
2022-07-25T00:32:19.923Z,24.00
2022-07-25T00:34:46.720Z,24.00
2022-07-25T00:37:13.506Z,24.00
2022-07-25T00:39:40.240Z,23.90
2022-07-25T00:42:07.232Z,23.90
2022-07-25T00:44:34.407Z,23.90
2022-07-25T00:47:01.718Z,23.90
2022-07-25T00:49:28.943Z,23.90
2022-07-25T00:51:55.871Z,23.90
2022-07-25T00:54:23.148Z,23.70
2022-07-25T00:56:50.884Z,23.70
2022-07-25T00:59:18.042Z,23.60
2022-07-25T01:01:47.869Z,23.60
2022-07-25T01:04:16.477Z,23.60
2022-07-25T01:06:43.653Z,23.60
2022-07-25T01:09:10.559Z,23.60
2022-07-25T01:11:37.857Z,23.60
2022-07-25T01:14:05.122Z,23.50
2022-07-25T01:16:32.127Z,23.50
2022-07-25T01:18:59.281Z,23.50
2022-07-25T01:21:26.862Z,23.50
2022-07-25T01:23:53.652Z,23.40
2022-07-25T01:26:20.662Z,23.40
2022-07-25T01:28:47.423Z,23.40
2022-07-25T01:31:14.299Z,23.40
2022-07-25T01:33:41.162Z,23.30
2022-07-25T01:36:08.372Z,23.30
2022-07-25T01:38:35.113Z,23.30
2022-07-25T01:41:01.944Z,23.20
2022-07-25T01:43:28.822Z,23.20
2022-07-25T01:45:55.840Z,23.20
2022-07-25T01:48:22.720Z,23.10
2022-07-25T01:50:49.580Z,23.10
2022-07-25T01:53:16.799Z,23.10
2022-07-25T01:55:45.971Z,23.10
2022-07-25T01:58:12.864Z,23.00
2022-07-25T02:00:41.256Z,23.00
2022-07-25T02:03:26.855Z,23.00
2022-07-25T02:05:53.808Z,22.90
2022-07-25T02:08:20.758Z,22.90
2022-07-25T02:10:47.626Z,22.90
2022-07-25T02:13:14.674Z,22.90
2022-07-25T02:15:41.490Z,22.90
2022-07-25T02:18:08.322Z,22.90
2022-07-25T02:20:35.166Z,22.90
2022-07-25T02:23:02.662Z,22.90
2022-07-25T02:25:29.680Z,22.90
2022-07-25T02:27:56.513Z,22.80
2022-07-25T02:30:24.416Z,22.80
2022-07-25T02:32:51.384Z,22.80
2022-07-25T02:35:18.210Z,22.70
2022-07-25T02:37:45.474Z,22.70
2022-07-25T02:40:12.672Z,22.70
2022-07-25T02:42:39.495Z,22.70
2022-07-25T02:45:06.869Z,22.60
2022-07-25T02:47:35.534Z,22.60
2022-07-25T02:50:05.700Z,22.60
2022-07-25T02:52:32.807Z,22.70
2022-07-25T02:55:03.813Z,22.70
2022-07-25T02:57:34.281Z,22.70
2022-07-25T03:00:01.265Z,22.70
2022-07-25T03:02:27.999Z,22.70
2022-07-25T03:04:54.806Z,22.70
2022-07-25T03:07:21.563Z,22.60
2022-07-25T03:09:48.394Z,22.50
2022-07-25T03:12:15.230Z,22.50
2022-07-25T03:14:41.972Z,22.50
2022-07-25T03:17:08.869Z,22.50
2022-07-25T03:19:35.686Z,22.40
2022-07-25T03:22:02.420Z,22.40
2022-07-25T03:24:29.169Z,22.40
2022-07-25T03:26:55.911Z,22.50
2022-07-25T03:29:22.681Z,22.50
2022-07-25T03:31:49.502Z,22.40
2022-07-25T03:34:16.419Z,22.40
2022-07-25T03:36:43.158Z,22.40
2022-07-25T03:39:09.908Z,22.40
2022-07-25T03:41:36.698Z,22.40
2022-07-25T03:44:04.137Z,22.40
2022-07-25T03:46:31.333Z,22.40
2022-07-25T03:48:58.253Z,22.30
2022-07-25T03:51:25.155Z,22.30
2022-07-25T03:54:05.192Z,22.30
2022-07-25T03:56:52.536Z,22.20
2022-07-25T03:59:21.201Z,22.20
2022-07-25T04:01:50.009Z,22.20
2022-07-25T04:04:17.986Z,22.20
2022-07-25T04:06:45.550Z,22.20
2022-07-25T04:09:12.893Z,22.10
2022-07-25T04:11:39.992Z,22.10
2022-07-25T04:14:07.482Z,22.10
2022-07-25T04:16:34.780Z,22.20
2022-07-25T04:19:01.843Z,22.20
2022-07-25T04:21:28.651Z,22.20
2022-07-25T04:23:55.366Z,22.10
2022-07-25T04:26:22.339Z,22.10
2022-07-25T04:28:49.720Z,22.10
2022-07-25T04:31:16.776Z,22.10
2022-07-25T04:33:44.057Z,22.10
2022-07-25T04:36:16.758Z,22.20
2022-07-25T04:38:44.043Z,22.10
2022-07-25T04:41:11.781Z,22.10
2022-07-25T04:43:38.581Z,22.00
2022-07-25T04:46:05.529Z,21.90
2022-07-25T04:48:32.371Z,21.90
2022-07-25T04:50:59.134Z,22.00
2022-07-25T04:53:25.899Z,22.00
2022-07-25T04:55:52.761Z,22.00
2022-07-25T04:58:19.723Z,22.00
2022-07-25T05:00:46.576Z,22.10
2022-07-25T05:03:13.350Z,22.10
2022-07-25T05:05:40.111Z,22.20
2022-07-25T05:08:06.873Z,22.20
2022-07-25T05:10:33.649Z,22.20
2022-07-25T05:13:00.420Z,22.20
2022-07-25T05:15:27.335Z,22.30
2022-07-25T05:17:54.105Z,22.30
2022-07-25T05:20:21.019Z,22.30
2022-07-25T05:22:50.631Z,22.30
2022-07-25T05:25:17.694Z,22.40
2022-07-25T05:27:44.882Z,22.40
2022-07-25T05:30:12.948Z,22.40
2022-07-25T05:32:40.293Z,22.50
2022-07-25T05:35:08.530Z,22.50
2022-07-25T05:37:36.805Z,22.60
2022-07-25T05:40:05.089Z,22.60
2022-07-25T05:42:32.589Z,22.50
2022-07-25T05:44:59.839Z,22.40
2022-07-25T05:47:26.641Z,22.40
2022-07-25T05:49:54.195Z,22.50
2022-07-25T05:52:21.098Z,22.60
2022-07-25T05:54:47.968Z,22.70
2022-07-25T05:57:14.913Z,22.80
2022-07-25T05:59:41.934Z,23.00
2022-07-25T06:02:08.887Z,23.10
2022-07-25T06:04:35.850Z,23.10
2022-07-25T06:07:02.895Z,23.20
2022-07-25T06:09:31.845Z,23.30
2022-07-25T06:12:01.162Z,23.40
2022-07-25T06:14:28.635Z,23.40
2022-07-25T06:16:55.578Z,23.30
2022-07-25T06:19:22.417Z,23.30
2022-07-25T06:21:49.232Z,23.20
2022-07-25T06:24:15.991Z,23.10
2022-07-25T06:26:42.834Z,23.10
2022-07-25T06:29:09.616Z,23.20
2022-07-25T06:31:36.553Z,23.40
2022-07-25T06:34:03.650Z,23.60
2022-07-25T06:36:32.348Z,23.80
2022-07-25T06:39:00.023Z,24.00
2022-07-25T06:41:27.177Z,24.30
2022-07-25T06:43:54.020Z,24.30
2022-07-25T06:46:20.895Z,24.40
2022-07-25T06:48:47.852Z,24.60
2022-07-25T06:51:15.175Z,24.70
2022-07-25T06:53:42.122Z,24.80
2022-07-25T06:56:09.928Z,24.90
2022-07-25T06:58:39.239Z,25.00
2022-07-25T07:01:06.984Z,25.10
2022-07-25T07:03:38.275Z,25.20
2022-07-25T07:06:07.602Z,25.20
2022-07-25T07:08:34.958Z,25.30
2022-07-25T07:11:01.793Z,25.40
2022-07-25T07:13:28.736Z,25.50
2022-07-25T07:15:55.962Z,25.60
2022-07-25T07:18:23.056Z,25.60
2022-07-25T07:20:50.284Z,25.70
2022-07-25T07:23:18.055Z,25.80
2022-07-25T07:25:46.949Z,25.80
2022-07-25T07:28:14.320Z,25.90
2022-07-25T07:33:29.628Z,26.10
2022-07-25T07:35:57.121Z,26.30
2022-07-25T07:38:25.046Z,26.50
2022-07-25T07:40:53.062Z,26.70
2022-07-25T07:43:20.231Z,26.70
2022-07-25T07:45:47.092Z,26.80
2022-07-25T07:48:13.926Z,26.80
2022-07-25T07:50:41.040Z,26.90
2022-07-25T07:53:07.909Z,27.00
2022-07-25T07:55:55.185Z,27.10
2022-07-25T07:58:22.302Z,27.00
2022-07-25T08:00:51.547Z,27.00
2022-07-25T08:03:20.629Z,27.10
2022-07-25T08:05:48.841Z,27.20
2022-07-25T08:08:16.481Z,27.50
2022-07-25T08:10:48.170Z,27.70
2022-07-25T08:13:16.860Z,27.90
2022-07-25T08:15:46.329Z,28.00
2022-07-25T08:18:17.138Z,28.20
2022-07-25T08:20:46.054Z,28.30
2022-07-25T08:23:13.044Z,28.50
2022-07-25T08:25:40.506Z,28.60
2022-07-25T08:28:07.971Z,28.70
2022-07-25T08:30:36.446Z,28.90
2022-07-25T08:33:07.251Z,29.00
2022-07-25T08:35:34.876Z,29.20
2022-07-25T08:38:05.108Z,29.30
2022-07-25T08:40:34.082Z,29.40
2022-07-25T08:43:01.370Z,29.50
2022-07-25T08:45:28.811Z,29.60
2022-07-25T08:47:56.697Z,29.70
2022-07-25T08:50:28.522Z,29.80
2022-07-25T08:53:16.246Z,29.80
2022-07-25T08:55:45.228Z,29.90
2022-07-25T08:58:14.117Z,29.90
2022-07-25T09:00:42.073Z,29.90
2022-07-25T09:03:09.268Z,30.00
2022-07-25T09:05:37.547Z,30.20
2022-07-25T09:08:13.436Z,30.20
2022-07-25T09:10:47.109Z,30.20
2022-07-25T09:13:14.867Z,30.30
2022-07-25T09:15:46.436Z,30.40
2022-07-25T09:18:16.044Z,30.60
2022-07-25T09:20:50.594Z,30.70
2022-07-25T09:23:35.642Z,30.70
2022-07-25T09:26:10.796Z,30.90
2022-07-25T09:28:53.298Z,31.00
2022-07-25T09:31:23.542Z,31.10
2022-07-25T09:33:56.897Z,31.20
2022-07-25T09:36:23.837Z,31.20
2022-07-25T09:38:55.554Z,31.20
2022-07-25T09:41:22.804Z,31.40
2022-07-25T09:43:49.637Z,31.50
2022-07-25T09:46:16.712Z,31.70
2022-07-25T09:48:45.695Z,31.70
2022-07-25T09:51:12.770Z,31.80
2022-07-25T09:53:40.903Z,31.90
2022-07-25T09:56:08.628Z,32.10
2022-07-25T09:58:35.438Z,32.00
2022-07-25T10:01:06.362Z,32.10
2022-07-25T10:03:51.023Z,32.20
2022-07-25T10:07:00.831Z,32.30
2022-07-25T10:09:27.698Z,32.40
2022-07-25T10:12:09.681Z,32.60
2022-07-25T10:14:37.614Z,32.60
2022-07-25T10:17:05.719Z,32.70
2022-07-25T10:19:51.137Z,32.70
2022-07-25T10:22:34.255Z,32.90
2022-07-25T10:25:18.709Z,33.00
2022-07-25T10:27:52.805Z,33.00
2022-07-25T10:30:24.902Z,33.00
2022-07-25T10:32:58.668Z,33.20
2022-07-25T10:35:27.652Z,33.30
2022-07-25T10:37:56.448Z,33.30
2022-07-25T10:40:45.037Z,33.30
2022-07-25T10:43:13.600Z,33.50
2022-07-25T10:45:52.329Z,33.60
2022-07-25T10:48:27.673Z,33.70
2022-07-25T10:51:01.990Z,33.90
2022-07-25T10:53:45.350Z,34.10
2022-07-25T10:56:18.274Z,34.30
2022-07-25T10:58:59.526Z,34.50
2022-07-25T11:01:31.777Z,34.40
2022-07-25T11:04:01.278Z,34.50
2022-07-25T11:06:42.710Z,34.60
2022-07-25T11:09:27.288Z,34.70
2022-07-25T11:11:57.157Z,34.80
2022-07-25T11:14:33.353Z,34.90
2022-07-25T11:17:19.830Z,35.10
2022-07-25T11:20:00.195Z,35.30
2022-07-25T11:22:28.892Z,35.40
2022-07-25T11:24:57.725Z,35.40
2022-07-25T11:27:30.654Z,35.60
2022-07-25T11:30:11.940Z,35.60
2022-07-25T11:32:46.730Z,35.60
2022-07-25T11:35:23.367Z,35.60
2022-07-25T11:37:52.230Z,35.70
2022-07-25T11:40:20.571Z,35.70
2022-07-25T11:42:56.002Z,35.70
2022-07-25T11:45:27.143Z,35.70
2022-07-25T11:48:12.118Z,35.60
2022-07-25T11:50:41.907Z,35.50
2022-07-25T11:53:14.453Z,35.60
2022-07-25T11:55:43.200Z,35.60
2022-07-25T11:58:11.523Z,35.80
2022-07-25T12:00:50.002Z,35.90
2022-07-25T12:03:20.939Z,35.90
2022-07-25T12:05:49.305Z,36.10
2022-07-25T12:08:20.269Z,36.40
2022-07-25T12:10:49.230Z,36.60
2022-07-25T12:13:27.765Z,36.70
2022-07-25T12:15:59.004Z,36.70
2022-07-25T12:18:26.598Z,36.80
2022-07-25T12:20:53.445Z,36.90
2022-07-25T12:23:24.768Z,36.90
2022-07-25T12:25:51.643Z,36.90
2022-07-25T12:28:18.581Z,37.00
2022-07-25T12:30:46.634Z,37.20
2022-07-25T12:33:14.066Z,37.20
2022-07-25T12:35:42.551Z,37.30
2022-07-25T12:38:10.987Z,37.30
2022-07-25T12:40:38.229Z,37.10
2022-07-25T12:43:05.257Z,36.80
2022-07-25T12:45:32.487Z,36.40
2022-07-25T12:48:00.110Z,36.10
2022-07-25T12:50:29.345Z,35.90
2022-07-25T12:52:56.126Z,35.90
2022-07-25T12:55:23.693Z,35.70
2022-07-25T12:57:50.976Z,35.50
2022-07-25T13:00:23.173Z,35.30
2022-07-25T13:02:52.127Z,35.30
2022-07-25T13:05:19.684Z,35.50
2022-07-25T13:07:47.402Z,35.60
2022-07-25T13:10:14.244Z,35.80
2022-07-25T13:12:41.414Z,35.90
2022-07-25T13:15:09.381Z,35.90
2022-07-25T13:17:36.453Z,36.00
2022-07-25T13:20:05.973Z,36.10
2022-07-25T13:22:32.990Z,36.10
2022-07-25T13:24:59.762Z,36.10
2022-07-25T13:27:26.574Z,36.10
2022-07-25T13:29:56.320Z,35.90
2022-07-25T13:32:24.075Z,35.70
2022-07-25T13:34:51.143Z,35.70
2022-07-25T13:37:18.267Z,35.70
2022-07-25T13:39:45.253Z,35.60
2022-07-25T13:42:12.623Z,35.60
2022-07-25T13:44:39.471Z,35.40
2022-07-25T13:52:28.101Z,35.30
2022-07-25T13:54:54.955Z,35.30
2022-07-25T13:57:21.787Z,35.30
2022-07-25T13:59:51.462Z,35.40
2022-07-25T14:02:18.315Z,35.30
2022-07-25T14:04:46.264Z,35.20
2022-07-25T14:07:14.437Z,35.20
2022-07-25T14:09:41.452Z,35.20
2022-07-25T14:12:10.686Z,35.10
2022-07-25T14:14:37.489Z,34.90
2022-07-25T14:17:04.655Z,34.80
2022-07-25T14:19:31.498Z,34.60
2022-07-25T14:21:58.393Z,34.50
2022-07-25T14:24:25.217Z,34.50
2022-07-25T14:26:53.991Z,34.50
2022-07-25T14:29:23.900Z,34.70
2022-07-25T14:31:54.081Z,34.80
2022-07-25T14:34:20.987Z,34.90
2022-07-25T14:36:53.036Z,35.10
2022-07-25T14:39:33.402Z,35.20
2022-07-25T14:42:16.015Z,35.30
2022-07-25T14:47:26.660Z,35.60
2022-07-25T14:49:54.259Z,35.60
2022-07-25T14:52:25.183Z,35.50
2022-07-25T14:54:52.245Z,35.50
2022-07-25T14:57:19.131Z,35.40
2022-07-25T14:59:46.146Z,35.30
2022-07-25T15:02:12.956Z,35.10
2022-07-25T15:04:39.748Z,34.80
2022-07-25T15:07:06.932Z,34.70
2022-07-25T15:09:33.757Z,34.70
2022-07-25T15:12:00.605Z,34.60
2022-07-25T15:14:27.409Z,34.50
2022-07-25T15:16:54.338Z,34.50
2022-07-25T15:19:21.497Z,34.40
2022-07-25T15:21:49.075Z,34.40
2022-07-25T15:24:15.877Z,34.30
2022-07-25T15:26:44.027Z,34.20
2022-07-25T15:29:13.659Z,34.10
2022-07-25T15:31:43.686Z,34.00
2022-07-25T15:34:11.033Z,34.00
2022-07-25T15:36:37.858Z,34.00
2022-07-25T15:39:05.020Z,33.90
2022-07-25T15:41:32.164Z,34.00
2022-07-25T15:43:59.818Z,33.90
2022-07-25T15:46:27.209Z,33.70
2022-07-25T15:48:54.134Z,33.70
2022-07-25T15:51:21.039Z,33.30
2022-07-25T15:53:48.087Z,33.30
2022-07-25T15:56:16.149Z,33.10
2022-07-25T15:58:43.331Z,33.00
2022-07-25T16:01:10.271Z,33.00
2022-07-25T16:03:37.647Z,33.00
2022-07-25T16:06:04.949Z,33.10
2022-07-25T16:08:32.226Z,33.20
2022-07-25T16:11:01.011Z,33.30
2022-07-25T16:13:29.732Z,33.40
2022-07-25T16:15:56.796Z,33.60
2022-07-25T16:18:23.695Z,33.60
2022-07-25T16:20:51.453Z,33.70
2022-07-25T16:23:19.337Z,33.60
2022-07-25T16:25:46.408Z,33.60
2022-07-25T16:28:13.195Z,33.60
2022-07-25T16:30:40.245Z,33.70
2022-07-25T16:33:10.073Z,33.70
2022-07-25T16:35:37.001Z,33.80
2022-07-25T16:38:06.158Z,33.80
2022-07-25T16:40:33.621Z,33.80
2022-07-25T16:43:01.015Z,33.80
2022-07-25T16:45:28.184Z,33.80
2022-07-25T16:47:55.174Z,33.70
2022-07-25T16:50:22.305Z,33.70
2022-07-25T16:52:49.066Z,33.50
2022-07-25T16:55:15.821Z,33.50
2022-07-25T16:57:42.671Z,33.50
2022-07-25T17:00:10.238Z,33.40
2022-07-25T17:02:38.823Z,33.40
2022-07-25T17:05:06.808Z,33.40
2022-07-25T17:07:33.797Z,33.50
2022-07-25T17:10:00.581Z,33.50
2022-07-25T17:12:27.333Z,33.60
2022-07-25T17:14:54.131Z,33.50
2022-07-25T17:17:21.055Z,33.50
2022-07-25T17:19:47.808Z,33.60
2022-07-25T17:22:15.010Z,33.50
2022-07-25T17:24:42.166Z,33.50
2022-07-25T17:27:09.815Z,33.20
2022-07-25T17:29:37.060Z,33.20
2022-07-25T17:32:05.954Z,33.20
2022-07-25T17:34:33.104Z,33.20
2022-07-25T17:37:03.028Z,33.20
2022-07-25T17:39:34.081Z,33.20
2022-07-25T17:42:01.950Z,33.00
2022-07-25T17:44:28.771Z,33.10
2022-07-25T17:46:55.853Z,33.10
2022-07-25T17:49:22.864Z,33.10
2022-07-25T17:51:49.992Z,32.90
2022-07-25T17:54:17.049Z,32.90
2022-07-25T17:56:45.323Z,32.90
2022-07-25T17:59:12.203Z,32.80
2022-07-25T18:01:40.031Z,32.70
2022-07-25T18:04:07.331Z,32.50
2022-07-25T18:06:34.548Z,32.40
2022-07-25T18:09:01.407Z,32.30
2022-07-25T18:11:28.247Z,32.30
2022-07-25T18:13:55.102Z,32.30
2022-07-25T18:16:21.955Z,32.00
2022-07-25T18:18:48.852Z,31.80
2022-07-25T18:21:15.911Z,31.80
2022-07-25T18:23:42.868Z,31.70
2022-07-25T18:26:12.232Z,31.60
2022-07-25T18:28:39.269Z,31.60
2022-07-25T18:31:06.290Z,31.50
2022-07-25T18:33:33.199Z,31.40
2022-07-25T18:36:04.091Z,31.30
2022-07-25T18:38:34.188Z,31.30
2022-07-25T18:41:26.537Z,31.20
2022-07-25T18:43:48.706Z,31.00
2022-07-25T18:46:23.387Z,30.90
2022-07-25T18:48:50.631Z,31.00
2022-07-25T18:51:17.674Z,30.80
2022-07-25T18:53:48.007Z,30.70
2022-07-25T18:56:15.846Z,30.70
2022-07-25T18:58:43.108Z,30.70
2022-07-25T19:01:10.667Z,30.60
2022-07-25T19:03:38.240Z,30.60
2022-07-25T19:06:06.825Z,30.60
2022-07-25T19:08:33.679Z,30.60
2022-07-25T19:11:00.938Z,30.50
2022-07-25T19:13:48.896Z,30.50
2022-07-25T19:16:15.998Z,30.60
2022-07-25T19:18:43.064Z,30.60
2022-07-25T19:21:10.554Z,30.40
2022-07-25T19:23:37.512Z,30.30
2022-07-25T19:26:04.505Z,30.30
2022-07-25T19:28:32.439Z,30.20
2022-07-25T19:30:59.313Z,30.00
2022-07-25T19:33:26.246Z,30.00
2022-07-25T19:36:04.993Z,30.00
2022-07-25T19:38:32.377Z,30.00
2022-07-25T19:40:59.737Z,30.00
2022-07-25T19:43:29.829Z,29.90
2022-07-25T19:45:56.766Z,29.90
2022-07-25T19:48:24.087Z,29.90
2022-07-25T19:50:51.868Z,29.90
2022-07-25T19:53:23.105Z,29.90
2022-07-25T19:55:53.646Z,29.90
2022-07-25T19:58:20.862Z,29.80
2022-07-25T20:00:47.721Z,29.70
2022-07-25T20:03:23.438Z,29.60
2022-07-25T20:05:51.130Z,29.60
2022-07-25T20:08:18.838Z,29.50
2022-07-25T20:10:48.672Z,29.50
2022-07-25T20:13:15.829Z,29.40
2022-07-25T20:15:42.939Z,29.40
2022-07-25T20:18:10.461Z,29.30
2022-07-25T20:20:37.570Z,29.20
2022-07-25T20:23:04.655Z,29.10
2022-07-25T20:25:31.743Z,29.10
2022-07-25T20:27:58.494Z,29.00
2022-07-25T20:30:25.701Z,29.00
2022-07-25T20:32:52.750Z,29.00
2022-07-25T20:35:19.752Z,29.00
2022-07-25T20:37:46.671Z,29.00
2022-07-25T20:40:13.831Z,28.90
2022-07-25T20:42:40.614Z,28.80
2022-07-25T20:45:08.191Z,28.60
2022-07-25T20:47:35.066Z,28.60
2022-07-25T20:50:02.311Z,28.50
2022-07-25T20:52:30.338Z,28.50
2022-07-25T20:54:57.224Z,28.40
2022-07-25T20:57:24.204Z,28.30
2022-07-25T20:59:51.709Z,28.20
2022-07-25T21:02:18.982Z,28.10
2022-07-25T21:04:48.381Z,28.20
2022-07-25T21:07:16.116Z,28.20
2022-07-25T21:09:42.867Z,28.10
2022-07-25T21:12:09.952Z,28.10
2022-07-25T21:14:37.339Z,28.00
2022-07-25T21:17:04.536Z,28.10
2022-07-25T21:19:31.415Z,28.10
2022-07-25T21:21:58.279Z,27.90
2022-07-25T21:24:25.191Z,27.70
2022-07-25T21:26:52.033Z,27.50
2022-07-25T21:29:18.889Z,27.50
2022-07-25T21:31:46.100Z,27.60
2022-07-25T21:34:12.956Z,27.60
2022-07-25T21:36:39.855Z,27.30
2022-07-25T21:39:07.231Z,27.40
2022-07-25T21:41:34.487Z,27.40
2022-07-25T21:44:01.598Z,27.50
2022-07-25T21:46:28.477Z,27.50
2022-07-25T21:49:14.595Z,27.60
2022-07-25T21:51:41.827Z,27.60
2022-07-25T21:54:09.882Z,27.60
2022-07-25T21:56:36.706Z,27.40
2022-07-25T21:59:03.575Z,27.20
2022-07-25T22:01:30.463Z,27.20
2022-07-25T22:03:57.241Z,27.30
2022-07-25T22:06:24.435Z,27.40
2022-07-25T22:08:51.331Z,27.50
2022-07-25T22:11:43.570Z,27.50
2022-07-25T22:14:05.275Z,27.50
2022-07-25T22:16:32.225Z,27.50
2022-07-25T22:18:59.762Z,27.50
2022-07-25T22:21:26.672Z,27.50
2022-07-25T22:23:53.455Z,27.50
2022-07-25T22:26:20.432Z,27.50
2022-07-25T22:28:48.249Z,27.50
2022-07-25T22:31:15.531Z,27.50
2022-07-25T22:33:42.374Z,27.50
2022-07-25T22:36:09.549Z,27.50
2022-07-25T22:38:36.468Z,27.40
2022-07-25T22:41:03.285Z,27.40
2022-07-25T22:43:57.825Z,27.40
2022-07-25T22:46:16.975Z,27.40
2022-07-25T22:48:43.963Z,27.30
2022-07-25T22:51:11.997Z,27.20
2022-07-25T22:53:38.726Z,27.10
2022-07-25T22:56:05.904Z,26.90
2022-07-25T22:58:35.923Z,26.90
2022-07-25T23:01:02.702Z,26.80
2022-07-25T23:03:30.681Z,26.80
2022-07-25T23:05:59.996Z,26.70
2022-07-25T23:08:26.776Z,26.60
2022-07-25T23:10:53.575Z,26.50
2022-07-25T23:13:20.731Z,26.50
2022-07-25T23:15:51.100Z,26.40
2022-07-25T23:18:18.819Z,26.40
2022-07-25T23:20:45.559Z,26.40
2022-07-25T23:23:12.485Z,26.40
2022-07-25T23:25:39.355Z,26.30
2022-07-25T23:28:06.276Z,26.30
2022-07-25T23:30:38.066Z,26.20
2022-07-25T23:33:07.635Z,26.20
2022-07-25T23:35:35.154Z,26.20
2022-07-25T23:38:02.473Z,26.10
2022-07-25T23:40:29.896Z,26.10
2022-07-25T23:42:56.697Z,26.00
2022-07-25T23:45:25.005Z,26.10
2022-07-25T23:47:55.612Z,26.10
2022-07-25T23:50:22.913Z,26.00
2022-07-25T23:52:49.651Z,26.10
2022-07-25T23:55:16.428Z,26.00
2022-07-25T23:57:43.255Z,26.10
